createdAt,value
2023-04-09T00:02:10.065Z,101132.34
2023-04-09T00:05:14.183Z,101127.81
2023-04-09T00:08:16.090Z,101131.50
2023-04-09T00:11:17.825Z,101128.13
2023-04-09T00:14:19.655Z,101120.31
2023-04-09T00:17:21.538Z,101119.53
2023-04-09T00:20:24.799Z,101115.06
2023-04-09T00:23:26.516Z,101110.06
2023-04-09T00:26:28.343Z,101119.78
2023-04-09T00:29:30.147Z,101108.03
2023-04-09T00:32:32.140Z,101114.00
2023-04-09T00:35:35.249Z,101104.47
2023-04-09T00:38:36.922Z,101109.91
2023-04-09T00:41:38.881Z,101102.41
2023-04-09T00:44:40.773Z,101094.97
2023-04-09T00:47:45.383Z,101100.72
2023-04-09T00:50:48.597Z,101102.78
2023-04-09T00:53:50.924Z,101099.81
2023-04-09T00:56:53.120Z,101096.66
2023-04-09T00:59:55.399Z,101103.56
2023-04-09T01:02:59.180Z,101105.44
2023-04-09T01:06:07.791Z,101104.88
2023-04-09T01:09:18.146Z,101109.97
2023-04-09T01:12:33.104Z,101103.25
2023-04-09T01:15:38.556Z,101112.94
2023-04-09T01:18:50.468Z,101115.34
2023-04-09T01:21:57.607Z,101106.78
2023-04-09T01:25:09.525Z,101104.94
2023-04-09T01:28:21.381Z,101097.13
2023-04-09T01:31:32.046Z,101097.28
2023-04-09T01:34:35.114Z,101104.59
2023-04-09T01:37:38.918Z,101104.22
2023-04-09T01:40:41.591Z,101093.19
2023-04-09T01:43:45.775Z,101105.13
2023-04-09T01:46:48.533Z,101106.44
2023-04-09T01:49:51.762Z,101109.06
2023-04-09T01:52:53.614Z,101112.03
2023-04-09T01:55:58.080Z,101115.91
2023-04-09T01:59:01.314Z,101113.66
2023-04-09T02:02:09.888Z,101115.31
2023-04-09T02:05:15.386Z,101108.06
2023-04-09T02:08:20.661Z,101116.03
2023-04-09T02:11:23.869Z,101112.88
2023-04-09T02:14:28.378Z,101113.47
2023-04-09T02:17:30.211Z,101119.59
2023-04-09T02:20:32.530Z,101122.69
2023-04-09T02:23:35.225Z,101113.09
2023-04-09T02:26:37.067Z,101113.03
2023-04-09T02:29:40.851Z,101118.94
2023-04-09T02:32:42.572Z,101114.50
2023-04-09T02:35:44.281Z,101114.00
2023-04-09T02:38:46.121Z,101120.44
2023-04-09T02:41:47.913Z,101116.38
2023-04-09T02:44:51.279Z,101115.03
2023-04-09T02:47:53.091Z,101113.94
2023-04-09T02:50:55.352Z,101119.41
2023-04-09T02:53:57.147Z,101108.69
2023-04-09T02:56:59.016Z,101117.59
2023-04-09T03:00:02.108Z,101113.22
2023-04-09T03:03:06.446Z,101112.00
2023-04-09T03:06:08.314Z,101104.88
2023-04-09T03:09:10.043Z,101107.38
2023-04-09T03:12:11.909Z,101105.13
2023-04-09T03:15:14.957Z,101094.63
2023-04-09T03:18:16.622Z,101102.31
2023-04-09T03:21:18.764Z,101091.94
2023-04-09T03:24:23.140Z,101094.63
2023-04-09T03:27:26.325Z,101097.38
2023-04-09T03:30:32.479Z,101098.25
2023-04-09T03:33:36.504Z,101087.41
2023-04-09T03:36:38.319Z,101097.28
2023-04-09T03:39:45.896Z,101093.31
2023-04-09T03:42:47.637Z,101087.72
2023-04-09T03:45:52.782Z,101098.63
2023-04-09T03:49:01.166Z,101086.03
2023-04-09T03:52:11.721Z,101089.78
2023-04-09T03:55:17.404Z,101090.16
2023-04-09T03:58:19.607Z,101090.50
2023-04-09T04:01:23.696Z,101085.69
2023-04-09T04:04:32.336Z,101086.44
2023-04-09T04:07:34.075Z,101086.94
2023-04-09T04:10:41.915Z,101080.28
2023-04-09T04:13:45.322Z,101082.38
2023-04-09T04:16:48.267Z,101083.69
2023-04-09T04:19:53.796Z,101087.78
2023-04-09T04:22:56.625Z,101085.53
2023-04-09T04:26:00.239Z,101088.50
2023-04-09T04:29:09.885Z,101094.66
2023-04-09T04:32:33.717Z,101086.84
2023-04-09T04:35:39.602Z,101086.84
2023-04-09T04:38:45.296Z,101087.03
2023-04-09T04:41:52.980Z,101097.66
2023-04-09T04:44:58.056Z,101092.66
2023-04-09T04:48:21.665Z,101097.66
2023-04-09T04:51:23.508Z,101097.28
2023-04-09T04:54:42.665Z,101095.41
2023-04-09T04:57:46.788Z,101097.66
2023-04-09T05:00:49.124Z,101096.16
2023-04-09T05:03:53.581Z,101105.88
2023-04-09T05:07:07.724Z,101108.47
2023-04-09T05:10:12.845Z,101110.00
2023-04-09T05:13:17.886Z,101106.81
2023-04-09T05:16:20.463Z,101104.75
2023-04-09T05:19:29.957Z,101104.00
2023-04-09T05:22:36.390Z,101113.53
2023-04-09T05:25:38.886Z,101104.38
2023-04-09T05:28:43.123Z,101107.91
2023-04-09T05:31:50.633Z,101108.47
2023-04-09T05:35:02.701Z,101112.22
2023-04-09T05:38:06.359Z,101110.34
2023-04-09T05:41:09.095Z,101107.19
2023-04-09T05:44:18.077Z,101113.88
2023-04-09T05:47:20.574Z,101109.78
2023-04-09T05:50:51.128Z,101117.63
2023-04-09T05:53:56.335Z,101116.66
2023-04-09T05:56:58.220Z,101118.72
2023-04-09T06:00:00.182Z,101112.75
2023-04-09T06:03:02.047Z,101117.53
2023-04-09T06:06:05.710Z,101113.97
2023-04-09T06:09:08.895Z,101116.56
2023-04-09T06:12:12.462Z,101123.84
2023-04-09T06:15:14.284Z,101116.22
2023-04-09T06:18:16.732Z,101120.66
2023-04-09T06:21:19.982Z,101122.31
2023-04-09T06:24:21.825Z,101118.25
2023-04-09T06:27:23.744Z,101117.47
2023-04-09T06:30:25.810Z,101122.81
2023-04-09T06:33:27.676Z,101122.63
2023-04-09T06:36:30.910Z,101123.69
2023-04-09T06:39:33.278Z,101128.84
2023-04-09T06:42:35.174Z,101125.22
2023-04-09T06:45:47.383Z,101126.44
2023-04-09T06:48:49.095Z,101128.06
2023-04-09T06:51:53.773Z,101139.09
2023-04-09T06:54:55.540Z,101134.59
2023-04-09T06:57:57.358Z,101135.66
2023-04-09T07:01:00.043Z,101131.06
2023-04-09T07:04:01.851Z,101129.72
2023-04-09T07:07:05.389Z,101134.97
2023-04-09T07:10:08.262Z,101131.81
2023-04-09T07:13:10.507Z,101133.13
2023-04-09T07:16:12.216Z,101135.09
2023-04-09T07:19:14.006Z,101126.91
2023-04-09T07:22:17.031Z,101138.25
2023-04-09T07:25:18.710Z,101137.81
2023-04-09T07:28:20.655Z,101138.63
2023-04-09T07:31:22.598Z,101139.50
2023-04-09T07:34:24.432Z,101139.72
2023-04-09T07:37:27.565Z,101146.31
2023-04-09T07:40:29.275Z,101146.06
2023-04-09T07:43:31.997Z,101148.19
2023-04-09T07:46:33.725Z,101145.81
2023-04-09T07:49:36.316Z,101141.03
2023-04-09T07:52:39.412Z,101144.00
2023-04-09T07:55:41.332Z,101153.66
2023-04-09T07:58:43.491Z,101151.97
2023-04-09T08:01:45.584Z,101149.34
2023-04-09T08:04:47.491Z,101156.28
2023-04-09T08:07:52.143Z,101152.91
2023-04-09T08:10:53.846Z,101156.63
2023-04-09T08:13:56.182Z,101157.38
2023-04-09T08:17:02.168Z,101157.13
2023-04-09T08:20:04.494Z,101160.16
2023-04-09T08:23:07.467Z,101169.38
2023-04-09T08:26:09.139Z,101163.72
2023-04-09T08:29:12.950Z,101160.94
2023-04-09T08:32:15.182Z,101170.91
2023-04-09T08:35:17.279Z,101166.03
2023-04-09T08:38:20.472Z,101171.09
2023-04-09T08:41:24.692Z,101170.75
2023-04-09T08:44:26.724Z,101174.94
2023-04-09T08:47:28.687Z,101172.88
2023-04-09T08:50:31.340Z,101169.41
2023-04-09T08:53:36.141Z,101166.38
2023-04-09T08:56:37.610Z,101174.50
2023-04-09T08:59:39.396Z,101180.88
2023-04-09T09:03:01.740Z,101180.66
2023-04-09T09:06:03.647Z,101181.09
2023-04-09T09:09:08.769Z,101178.88
2023-04-09T09:12:10.458Z,101183.63
2023-04-09T09:15:27.135Z,101183.34
2023-04-09T09:18:38.451Z,101185.06
2023-04-09T09:21:40.478Z,101175.50
2023-04-09T09:24:51.225Z,101172.38
2023-04-09T09:27:53.466Z,101171.00
2023-04-09T09:30:55.309Z,101173.31
2023-04-09T09:33:57.084Z,101169.81
2023-04-09T09:36:58.880Z,101170.38
2023-04-09T09:40:02.039Z,101171.91
2023-04-09T09:43:03.854Z,101177.31
2023-04-09T09:46:06.087Z,101180.56
2023-04-09T09:49:08.757Z,101168.22
2023-04-09T09:52:11.620Z,101165.06
2023-04-09T09:55:17.909Z,101172.38
2023-04-09T09:58:23.638Z,101164.13
2023-04-09T10:01:28.048Z,101161.97
2023-04-09T10:04:33.399Z,101166.34
2023-04-09T10:07:36.497Z,101159.63
2023-04-09T10:10:42.307Z,101157.03
2023-04-09T10:13:48.924Z,101147.56
2023-04-09T10:16:51.429Z,101151.34
2023-04-09T10:20:01.701Z,101155.38
2023-04-09T10:23:09.634Z,101150.81
2023-04-09T10:26:12.972Z,101155.03
2023-04-09T10:29:16.539Z,101153.41
2023-04-09T10:32:21.078Z,101147.03
2023-04-09T10:35:26.755Z,101147.97
2023-04-09T10:38:36.752Z,101137.47
2023-04-09T10:41:40.134Z,101144.56
2023-04-09T10:44:42.527Z,101138.66
2023-04-09T10:47:46.253Z,101143.28
2023-04-09T10:50:51.102Z,101140.56
2023-04-09T10:53:54.223Z,101136.66
2023-04-09T10:57:15.507Z,101137.91
2023-04-09T11:00:18.772Z,101130.88
2023-04-09T11:03:23.166Z,101132.00
2023-04-09T11:06:25.987Z,101134.00
2023-04-09T11:09:27.768Z,101130.41
2023-04-09T11:12:30.844Z,101127.81
2023-04-09T11:15:35.770Z,101118.91
2023-04-09T11:18:37.640Z,101127.59
2023-04-09T11:21:46.008Z,101115.59
2023-04-09T11:24:48.570Z,101122.91
2023-04-09T11:27:52.779Z,101115.91
2023-04-09T11:30:54.773Z,101112.88
2023-04-09T11:33:56.730Z,101119.47
2023-04-09T11:36:59.625Z,101111.34
2023-04-09T11:40:01.386Z,101111.63
2023-04-09T11:43:08.037Z,101108.44
2023-04-09T11:46:10.207Z,101109.03
2023-04-09T11:49:13.769Z,101109.38
2023-04-09T11:52:18.476Z,101118.03
2023-04-09T11:55:24.940Z,101111.06
2023-04-09T11:58:28.037Z,101115.16
2023-04-09T12:01:32.573Z,101115.16
2023-04-09T12:04:34.281Z,101110.72
2023-04-09T12:07:37.456Z,101111.22
2023-04-09T12:10:39.977Z,101114.13
2023-04-09T12:13:44.302Z,101109.78
2023-04-09T12:16:46.134Z,101101.63
2023-04-09T12:19:48.726Z,101116.78
2023-04-09T12:22:50.476Z,101109.69
2023-04-09T12:25:52.201Z,101110.19
2023-04-09T12:28:55.380Z,101110.22
2023-04-09T12:31:57.430Z,101116.69
2023-04-09T12:34:59.196Z,101108.50
2023-04-09T12:38:01.063Z,101103.41
2023-04-09T12:41:02.860Z,101094.97
2023-04-09T12:44:07.297Z,101081.66
2023-04-09T12:47:09.069Z,101079.94
2023-04-09T12:50:12.602Z,101087.19
2023-04-09T12:53:14.305Z,101078.56
2023-04-09T12:56:16.109Z,101071.16
2023-04-09T12:59:19.176Z,101072.00
2023-04-09T13:02:21.924Z,101071.72
2023-04-09T13:05:23.872Z,101067.72
2023-04-09T13:08:25.739Z,101063.41
2023-04-09T13:11:27.573Z,101061.78
2023-04-09T13:14:30.720Z,101059.28
2023-04-09T13:17:32.562Z,101057.78
2023-04-09T13:20:34.350Z,101053.22
2023-04-09T13:23:36.252Z,101045.88
2023-04-09T13:26:39.092Z,101042.69
2023-04-09T13:29:42.200Z,101036.66
2023-04-09T13:32:44.148Z,101039.13
2023-04-09T13:35:46.761Z,101033.31
2023-04-09T13:38:49.117Z,101029.34
2023-04-09T13:41:51.171Z,101027.63
2023-04-09T13:44:55.426Z,101030.91
2023-04-09T13:47:57.577Z,101022.06
2023-04-09T13:50:59.547Z,101018.84
2023-04-09T13:54:02.759Z,101015.53
2023-04-09T13:57:06.903Z,101006.56
2023-04-09T14:00:11.150Z,101006.41
2023-04-09T14:03:14.328Z,100997.56
2023-04-09T14:06:16.164Z,101000.09
2023-04-09T14:09:18.004Z,101002.22
2023-04-09T14:12:19.891Z,100996.88
2023-04-09T14:15:23.371Z,100999.13
2023-04-09T14:18:25.282Z,101004.03
2023-04-09T14:21:27.656Z,100999.31
2023-04-09T14:24:30.982Z,100980.22
2023-04-09T14:27:33.139Z,101001.84
2023-04-09T14:30:36.271Z,100989.47
2023-04-09T14:33:38.036Z,100988.28
2023-04-09T14:36:39.801Z,100986.56
2023-04-09T14:39:41.503Z,100987.66
2023-04-09T14:42:43.545Z,100984.31
2023-04-09T14:45:46.660Z,100986.00
2023-04-09T14:48:48.673Z,100983.16
2023-04-09T14:51:50.548Z,100978.22
2023-04-09T14:54:52.268Z,100981.94
2023-04-09T14:57:54.044Z,100982.44
2023-04-09T15:00:57.592Z,100973.38
2023-04-09T15:04:00.228Z,100972.13
2023-04-09T15:07:02.274Z,100975.88
2023-04-09T15:10:04.440Z,100961.78
2023-04-09T15:13:06.145Z,100962.66
2023-04-09T15:16:09.906Z,100955.78
2023-04-09T15:19:11.780Z,100956.31
2023-04-09T15:22:13.724Z,100953.16
2023-04-09T15:25:15.703Z,100942.97
2023-04-09T15:28:17.492Z,100947.19
2023-04-09T15:31:21.199Z,100942.63
2023-04-09T15:34:23.750Z,100944.63
2023-04-09T15:37:25.484Z,100951.00
2023-04-09T15:40:29.422Z,100946.53
2023-04-09T15:43:31.625Z,100938.19
2023-04-09T15:46:35.036Z,100943.44
2023-04-09T15:49:37.073Z,100948.41
2023-04-09T15:52:38.757Z,100946.72
2023-04-09T15:55:43.150Z,100939.28
2023-04-09T15:58:44.867Z,100941.97
2023-04-09T16:01:48.618Z,100942.84
2023-04-09T16:04:50.597Z,100938.59
2023-04-09T16:07:52.500Z,100945.19
2023-04-09T16:10:56.331Z,100945.53
2023-04-09T16:13:58.916Z,100945.25
2023-04-09T16:17:01.971Z,100930.88
2023-04-09T16:20:04.202Z,100939.06
2023-04-09T16:23:05.989Z,100940.75
2023-04-09T16:26:07.735Z,100937.75
2023-04-09T16:29:09.606Z,100941.28
2023-04-09T16:32:12.804Z,100927.44
2023-04-09T16:35:14.790Z,100938.66
2023-04-09T16:38:16.667Z,100936.22
2023-04-09T16:41:18.547Z,100931.16
2023-04-09T16:44:20.483Z,100930.44
2023-04-09T16:47:23.786Z,100930.97
2023-04-09T16:50:26.198Z,100928.78
2023-04-09T16:53:27.947Z,100933.81
2023-04-09T16:56:29.691Z,100934.59
2023-04-09T16:59:31.513Z,100937.28
2023-04-09T17:02:35.444Z,100933.00
2023-04-09T17:05:37.997Z,100935.13
2023-04-09T17:08:40.033Z,100932.63
2023-04-09T17:11:42.231Z,100937.41
2023-04-09T17:14:44.488Z,100930.59
2023-04-09T17:17:51.121Z,100936.50
2023-04-09T17:20:53.483Z,100930.22
2023-04-09T17:23:55.305Z,100936.41
2023-04-09T17:26:57.041Z,100932.94
2023-04-09T17:29:58.802Z,100942.78
2023-04-09T17:33:02.094Z,100942.63
2023-04-09T17:36:04.089Z,100946.88
2023-04-09T17:39:06.484Z,100953.50
2023-04-09T17:42:11.821Z,100952.47
2023-04-09T17:45:13.726Z,100956.69
2023-04-09T17:48:16.923Z,100966.78
2023-04-09T17:51:19.820Z,100959.84
2023-04-09T17:54:21.845Z,100958.97
2023-04-09T17:57:23.465Z,100953.09
2023-04-09T18:00:25.458Z,100959.09
2023-04-09T18:03:28.663Z,100961.53
2023-04-09T18:06:31.464Z,100961.94
2023-04-09T18:09:33.489Z,100962.28
2023-04-09T18:12:35.249Z,100962.97
2023-04-09T18:15:37.054Z,100970.03
2023-04-09T18:18:40.326Z,100965.66
2023-04-09T18:21:42.050Z,100974.66
2023-04-09T18:24:43.976Z,100975.00
2023-04-09T18:27:45.704Z,100974.84
2023-04-09T18:30:47.705Z,100979.03
2023-04-09T18:33:51.385Z,100989.41
2023-04-09T18:36:54.134Z,100995.91
2023-04-09T18:39:56.530Z,100991.41
2023-04-09T18:42:58.209Z,101002.09
2023-04-09T18:45:59.971Z,100991.28
2023-04-09T18:49:03.889Z,100995.00
2023-04-09T18:52:06.383Z,100995.16
2023-04-09T18:55:09.543Z,100994.50
2023-04-09T18:58:15.532Z,100997.94
2023-04-09T19:01:20.008Z,100994.69
2023-04-09T19:04:23.315Z,100990.34
2023-04-09T19:07:25.105Z,100989.56
2023-04-09T19:10:28.196Z,100988.34
2023-04-09T19:13:30.370Z,101003.34
2023-04-09T19:16:32.428Z,101001.16
2023-04-09T19:19:35.914Z,101005.34
2023-04-09T19:22:37.691Z,101003.97
2023-04-09T19:25:39.761Z,101009.06
2023-04-09T19:28:41.591Z,101009.69
2023-04-09T19:31:43.524Z,101003.97
2023-04-09T19:34:47.035Z,100999.94
2023-04-09T19:37:49.438Z,101003.50
2023-04-09T19:40:51.270Z,100997.16
2023-04-09T19:43:53.073Z,100988.78
2023-04-09T19:46:55.467Z,100990.81
2023-04-09T19:49:58.679Z,101000.53
2023-04-09T19:53:00.336Z,101004.59
2023-04-09T19:56:02.334Z,100994.97
2023-04-09T19:59:04.495Z,101000.38
2023-04-09T20:02:06.915Z,100996.03
2023-04-09T20:05:10.452Z,100996.50
2023-04-09T20:08:15.204Z,101004.09
2023-04-09T20:11:17.838Z,101011.97
2023-04-09T20:14:19.531Z,101003.91
2023-04-09T20:17:21.822Z,101007.31
2023-04-09T20:20:25.556Z,101006.03
2023-04-09T20:23:27.250Z,101009.41
2023-04-09T20:26:28.927Z,101004.00
2023-04-09T20:29:30.743Z,100999.81
2023-04-09T20:32:33.106Z,100999.41
2023-04-09T20:35:36.575Z,100994.47
2023-04-09T20:38:38.357Z,100995.63
2023-04-09T20:41:40.277Z,100993.50
2023-04-09T20:44:43.311Z,100995.78
2023-04-09T20:47:45.280Z,100986.00
2023-04-09T20:50:48.440Z,100994.84
2023-04-09T20:53:50.169Z,100989.75
2023-04-09T20:56:52.258Z,100985.09
2023-04-09T20:59:54.292Z,100992.16
2023-04-09T21:02:56.144Z,100991.94
2023-04-09T21:05:59.232Z,100988.53
2023-04-09T21:09:01.399Z,100985.03
2023-04-09T21:12:03.059Z,100990.22
2023-04-09T21:15:05.769Z,100987.88
2023-04-09T21:18:07.430Z,100993.66
2023-04-09T21:21:10.825Z,100991.69
2023-04-09T21:24:12.549Z,101000.38
2023-04-09T21:27:15.115Z,100993.06
2023-04-09T21:30:16.861Z,100995.00
2023-04-09T21:33:19.350Z,100987.94
2023-04-09T21:36:22.524Z,100989.28
2023-04-09T21:39:24.235Z,100984.09
2023-04-09T21:42:26.359Z,100981.72
2023-04-09T21:45:28.802Z,100975.59
2023-04-09T21:48:30.596Z,100970.94
2023-04-09T21:51:33.746Z,100981.28
2023-04-09T21:54:36.013Z,100964.25
2023-04-09T21:57:37.690Z,100971.38
2023-04-09T22:00:39.450Z,100969.91
2023-04-09T22:03:41.693Z,100964.81
2023-04-09T22:06:46.707Z,100966.84
2023-04-09T22:09:48.458Z,100967.31
2023-04-09T22:12:50.599Z,100972.09
2023-04-09T22:15:52.391Z,100973.19
2023-04-09T22:18:54.882Z,100975.22
2023-04-09T22:21:58.623Z,100972.72
2023-04-09T22:25:00.408Z,100978.41
2023-04-09T22:28:02.330Z,100984.06
2023-04-09T22:31:04.152Z,100986.16
2023-04-09T22:34:19.301Z,100985.84
2023-04-09T22:37:23.476Z,100989.44
2023-04-09T22:40:25.424Z,100990.44
2023-04-09T22:43:28.416Z,100994.59
2023-04-09T22:46:30.903Z,100986.00
2023-04-09T22:49:32.599Z,100989.41
2023-04-09T22:52:35.958Z,100982.59
2023-04-09T22:55:38.262Z,100981.22
2023-04-09T22:58:40.183Z,100984.50
2023-04-09T23:01:42.471Z,100989.44
2023-04-09T23:04:45.498Z,100983.38
2023-04-09T23:07:48.723Z,100980.06
2023-04-09T23:10:50.520Z,100981.50
2023-04-09T23:13:52.212Z,100981.00
2023-04-09T23:16:54.022Z,100988.47
2023-04-09T23:19:55.736Z,100986.25
2023-04-09T23:22:58.848Z,100980.50
2023-04-09T23:26:00.931Z,100982.38
2023-04-09T23:29:02.730Z,100980.50
2023-04-09T23:32:04.923Z,100987.25
2023-04-09T23:35:06.955Z,100977.41
2023-04-09T23:38:10.148Z,100978.34
2023-04-09T23:41:11.998Z,100966.03
2023-04-09T23:44:13.819Z,100965.84
2023-04-09T23:47:16.412Z,100962.31
2023-04-09T23:50:18.454Z,100958.22
2023-04-09T23:53:21.660Z,100953.00
2023-04-09T23:56:23.358Z,100948.88
2023-04-09T23:59:25.127Z,100941.91
